Stations météo

réclame
Mon MeteoGroup
Venezia Lido, Italie (16101): Température de l'air & dewpoint: 22.05.2018 11:00:00 - 28.05.2018 11:00:00 (CEST)Venezia Lido, Italie (16101): Vitesse du vent: 22.05.2018 11:00:00 - 28.05.2018 11:00:00 (CEST)Venezia Lido, Italie (16101): Direction du vent: 22.05.2018 11:00:00 - 28.05.2018 11:00:00 (CEST)Venezia Lido, Italie (16101): reduced air pressure: 22.05.2018 11:00:00 - 28.05.2018 11:00:00 (CEST)Venezia Lido, Italie (16101): Quantités de précipitations: 22.05.2018 11:00:00 - 28.05.2018 11:00:00 (CEST)
Date & Time tt [°C] td [°C] ff [km/h] ff [knt] dd ppp [hPa] rr [mm]
28.05.2018 11:00:00 - - - - - - -
28.05.2018 10:00:00 24,8 17,0 11 6 E 1018,4 -
28.05.2018 09:00:00 22,9 17,7 8 4 ENE 1018,4 -
28.05.2018 08:00:00 21,0 17,3 5 3 NE 1018,3 -
28.05.2018 07:00:00 19,4 16,6 8 4 NE 1018,0 -
28.05.2018 06:00:00 19,1 16,6 4 2 NNE 1017,7 -
28.05.2018 05:00:00 18,8 17,1 4 2 NE 1017,2 -
28.05.2018 04:00:00 19,4 17,7 2 1 ENE 1017,8 -
28.05.2018 03:00:00 19,7 18,0 5 3 ENE 1017,5 -
28.05.2018 02:00:00 20,1 18,3 0 0 N 1017,8 0,0
28.05.2018 01:00:00 20,0 18,2 4 2 SE 1018,1 -
28.05.2018 00:00:00 21,1 19,3 4 2 NNE 1018,1 -
27.05.2018 23:00:00 21,2 19,1 2 1 NE 1017,8 -
27.05.2018 22:00:00 21,4 19,1 2 1 SE 1017,6 -
27.05.2018 21:00:00 22,4 19,5 4 2 NE 1017,5 -
27.05.2018 20:00:00 23,1 19,8 4 2 S 1017,3 0,0
27.05.2018 19:00:00 23,6 19,7 9 5 SSW 1016,9 -
27.05.2018 18:00:00 24,8 20,2 8 4 SW 1016,6 -
27.05.2018 17:00:00 25,5 20,2 9 5 S 1016,9 -
27.05.2018 16:00:00 26,3 19,6 8 4 S 1017,6 -
27.05.2018 15:00:00 25,1 20,7 11 6 S 1017,8 -
27.05.2018 14:00:00 25,5 17,9 9 5 SSW 1018,2 0,0
27.05.2018 13:00:00 25,3 19,4 9 5 SSW 1018,9 -
27.05.2018 12:00:00 25,7 19,3 8 4 SSE 1019,0 -
27.05.2018 11:00:00 25,5 19,3 5 3 SE 1019,1 -
27.05.2018 10:00:00 24,6 19,4 11 6 E 1019,1 -
27.05.2018 09:00:00 22,7 20,9 5 3 NE 1019,0 -
27.05.2018 08:00:00 21,1 19,5 4 2 NE 1018,9 -
27.05.2018 07:00:00 20,0 18,4 2 1 N 1018,9 -
27.05.2018 06:00:00 19,0 17,3 4 2 NE 1018,7 -
27.05.2018 05:00:00 19,7 18,0 5 3 NE 1018,5 -
27.05.2018 04:00:00 19,2 17,5 0 0 N 1018,8 -
27.05.2018 03:00:00 19,4 17,7 0 0 N 1019,0 -
27.05.2018 02:00:00 19,3 17,6 2 1 E 1019,3 0,0
27.05.2018 01:00:00 20,3 18,5 0 0 N 1019,9 -
27.05.2018 00:00:00 20,5 18,7 5 3 SSW 1019,8 -
26.05.2018 23:00:00 20,6 18,1 4 2 S 1019,6 -
26.05.2018 22:00:00 20,9 17,4 2 1 SSW 1019,9 -
26.05.2018 21:00:00 21,8 17,7 4 2 SW 1019,0 -
26.05.2018 20:00:00 23,4 18,2 4 2 SW 1018,4 0,0
26.05.2018 19:00:00 24,2 17,1 4 2 S 1018,0 -
26.05.2018 18:00:00 24,4 16,8 5 3 S 1018,5 -
26.05.2018 17:00:00 24,3 17,5 8 4 S 1018,9 -
26.05.2018 16:00:00 24,1 19,5 8 4 S 1019,2 -
26.05.2018 15:00:00 23,7 18,9 9 5 S 1019,6 -
26.05.2018 14:00:00 23,8 19,5 9 5 S 1019,9 -
26.05.2018 13:00:00 23,6 18,0 11 6 SSE 1020,0 -
26.05.2018 12:00:00 23,9 18,0 11 6 SE 1020,0 -
26.05.2018 11:00:00 23,5 17,6 11 6 SE 1019,7 -
26.05.2018 10:00:00 23,3 17,2 11 6 ENE 1019,6 -
26.05.2018 09:00:00 21,6 17,7 5 3 NE 1019,7 -
26.05.2018 08:00:00 21,4 17,5 8 4 ENE 1019,1 -
26.05.2018 07:00:00 19,7 16,3 13 7 E 1018,7 -
26.05.2018 06:00:00 18,4 15,2 15 8 E 1018,3 -
26.05.2018 05:00:00 19,8 15,6 13 7 ENE 1018,1 -
26.05.2018 04:00:00 20,0 15,4 18 10 E 1018,1 -
26.05.2018 03:00:00 20,6 16,6 21 11 E 1018,2 -
26.05.2018 02:00:00 20,5 16,0 16 9 E 1018,1 0,0
26.05.2018 01:00:00 20,5 18,2 11 6 ENE 1018,0 -
26.05.2018 00:00:00 20,6 18,7 11 6 E 1017,9 -
25.05.2018 23:00:00 21,7 19,7 5 3 ESE 1017,4 -
25.05.2018 22:00:00 22,4 19,7 11 6 ESE 1016,6 -
25.05.2018 21:00:00 23,0 19,1 4 2 SE 1015,5 -
25.05.2018 20:00:00 24,4 18,0 5 3 S 1014,7 0,0
25.05.2018 19:00:00 25,1 16,7 9 5 S 1014,2 -
25.05.2018 18:00:00 26,1 16,3 9 5 S 1014,4 -
25.05.2018 17:00:00 27,5 17,6 8 4 SW 1014,4 -
25.05.2018 16:00:00 26,2 17,8 9 5 SSW 1014,5 -
25.05.2018 15:00:00 25,4 19,0 9 5 SSW 1015,0 -
25.05.2018 14:00:00 24,9 18,5 11 6 S 1015,3 0,0
25.05.2018 13:00:00 26,0 17,6 5 3 ESE 1015,6 -
25.05.2018 12:00:00 25,3 17,4 8 4 E 1015,7 -
25.05.2018 11:00:00 24,1 16,3 4 2 N 1015,7 -
25.05.2018 10:00:00 22,7 16,2 4 2 NNE 1015,7 -
25.05.2018 09:00:00 21,8 17,3 4 2 NE 1015,5 -
25.05.2018 08:00:00 20,0 17,1 4 2 N 1015,6 0,0
25.05.2018 07:00:00 18,4 16,7 4 2 ENE 1015,4 -
25.05.2018 06:00:00 17,1 15,4 4 2 NNE 1015,3 -
25.05.2018 05:00:00 17,8 16,1 5 3 N 1015,3 -
25.05.2018 04:00:00 17,7 16,0 5 3 N 1015,5 -
25.05.2018 03:00:00 17,6 15,3 4 2 NE 1015,9 -
25.05.2018 02:00:00 18,6 15,8 4 2 NNW 1016,2 0,0
25.05.2018 01:00:00 18,8 15,4 4 2 NNE 1016,2 -
25.05.2018 00:00:00 19,7 15,7 8 4 ENE 1016,0 -
24.05.2018 23:00:00 19,5 15,7 4 2 ENE 1015,9 -
24.05.2018 22:00:00 20,2 16,6 4 2 ENE 1015,8 -
24.05.2018 21:00:00 20,8 16,3 11 6 ENE 1015,4 -
24.05.2018 20:00:00 21,9 16,8 16 9 ENE 1015,0 0,0
24.05.2018 19:00:00 24,1 17,8 2 1 ESE 1014,8 -
24.05.2018 18:00:00 24,7 16,9 8 4 S 1014,8 -
24.05.2018 17:00:00 25,0 17,1 9 5 SW 1014,8 -
24.05.2018 16:00:00 24,1 17,0 9 5 SSW 1015,3 -
24.05.2018 15:00:00 25,5 17,9 11 6 SW 1015,6 -
24.05.2018 14:00:00 25,6 19,2 9 5 SSW 1016,0 0,0
24.05.2018 13:00:00 25,9 18,5 8 4 ENE 1016,3 -
24.05.2018 12:00:00 24,9 19,0 11 6 E 1016,8 -
24.05.2018 11:00:00 23,1 18,8 8 4 NE 1016,7 -
24.05.2018 10:00:00 21,5 18,0 5 3 NNE 1016,7 -
24.05.2018 09:00:00 20,2 17,3 8 4 NE 1016,5 -
24.05.2018 08:00:00 18,6 16,3 4 2 N 1016,5 0,0
24.05.2018 07:00:00 18,2 15,9 4 2 N 1016,2 -
24.05.2018 06:00:00 18,2 15,8 4 2 N 1016,2 -
24.05.2018 05:00:00 18,4 15,9 4 2 NW 1016,2 -
24.05.2018 04:00:00 18,8 16,2 4 2 NW 1016,4 -
24.05.2018 03:00:00 19,1 16,4 4 2 NNW 1016,3 -
24.05.2018 02:00:00 19,1 16,6 4 2 NW 1016,1 0,0
24.05.2018 01:00:00 19,3 16,5 0 0 N 1016,5 -
24.05.2018 00:00:00 19,6 17,1 2 1 NE 1016,5 -
23.05.2018 23:00:00 19,3 16,3 2 1 NNW 1016,4 -
23.05.2018 22:00:00 20,4 17,0 4 2 WNW 1016,3 -
23.05.2018 21:00:00 20,8 17,5 4 2 W 1016,0 -
23.05.2018 20:00:00 21,3 17,4 4 2 W 1015,5 -
23.05.2018 19:00:00 21,4 17,5 5 3 W 1015,1 -
23.05.2018 18:00:00 22,0 16,2 4 2 WNW 1015,5 -
23.05.2018 17:00:00 22,0 16,6 8 4 NW 1015,4 -
23.05.2018 16:00:00 21,0 17,1 4 2 N 1015,9 -
23.05.2018 15:00:00 19,8 16,9 4 2 NNW 1016,6 -
23.05.2018 14:00:00 18,6 16,3 2 1 NE 1016,9 -
23.05.2018 13:00:00 18,4 16,7 0 0 N 1017,0 -
23.05.2018 12:00:00 18,5 16,6 5 3 ESE 1017,0 -
23.05.2018 11:00:00 18,2 16,5 5 3 NNE 1016,4 -
23.05.2018 10:00:00 17,4 15,7 5 3 NNE 1016,3 -
23.05.2018 09:00:00 16,7 15,2 8 4 NNE 1016,1 -
23.05.2018 08:00:00 16,1 14,6 5 3 NNE 1015,7 -
23.05.2018 07:00:00 16,2 14,7 4 2 N 1015,4 -
23.05.2018 06:00:00 15,3 13,8 0 0 N 1015,3 -
23.05.2018 05:00:00 16,1 14,6 8 4 ENE 1014,9 -
23.05.2018 04:00:00 16,4 14,9 5 3 NE 1015,2 -
23.05.2018 03:00:00 16,6 15,1 5 3 ENE 1015,5 -
23.05.2018 02:00:00 17,0 15,5 16 9 E 1015,9 0,0
23.05.2018 01:00:00 17,5 16,0 11 6 E 1016,2 -
23.05.2018 00:00:00 18,0 16,3 4 2 NE 1016,1 -
22.05.2018 23:00:00 17,6 15,9 4 2 NNE 1016,1 -
22.05.2018 22:00:00 17,6 15,9 0 0 N 1016,0 -
22.05.2018 21:00:00 18,4 16,7 2 1 SW 1014,9 -
22.05.2018 20:00:00 18,8 17,1 8 4 S 1015,1 -
22.05.2018 19:00:00 19,0 17,3 5 3 SE 1014,4 -
22.05.2018 18:00:00 18,8 17,1 9 5 ESE 1014,4 -
22.05.2018 17:00:00 18,6 16,9 11 6 E 1014,6 -
22.05.2018 16:00:00 18,3 16,6 11 6 E 1014,5 -
22.05.2018 15:00:00 17,7 16,1 15 8 E 1014,5 -
22.05.2018 14:00:00 16,0 14,5 8 4 NE 1014,5 -
22.05.2018 13:00:00 15,8 14,3 11 6 ENE 1014,4 -
22.05.2018 12:00:00 15,6 14,1 9 5 NE 1014,2 -
22.05.2018 11:00:00 15,1 13,6 5 3 ENE 1014,1 -

tt = Température de l'air
td = dewpoint
ff = Vitesse du vent
dd = Direction du vent
ppp = reduced air pressure
rr = Quantités de précipitations

stations d'obs. à proximité